Time;durP1;ratioP1;P1;durP2;ratioP2;P2;SDS_P1;SDS_P2;PMS_P1;PMS_P2;Temp;Humidity;BMP_temperature;BMP_pressure;BME280_temperature;BME280_humidity;BME280_pressure;Samples;Min_cycle;Max_cycle;Signal;HPM_P1;HPM_P2
2022/08/14 00:01:06;;;;;;;18.62;16.62;;;;;;;17.88;100.00;98557.19;2211671;81;21307;-82
2022/08/14 00:04:06;;;;;;;16.85;15.32;;;;;;;17.89;100.00;98553.64;2211499;81;20901;-81
2022/08/14 00:07:07;;;;;;;17.37;15.58;;;;;;;17.88;100.00;98556.73;2211373;81;20905;-81
2022/08/14 00:10:07;;;;;;;18.02;16.15;;;;;;;17.89;100.00;98555.83;2211645;81;21343;-81
2022/08/14 00:13:07;;;;;;;17.87;15.93;;;;;;;17.92;100.00;98550.94;2211778;81;21269;-82
2022/08/14 00:16:12;;;;;;;16.97;15.30;;;;;;;17.93;100.00;98546.06;2211728;81;20999;-82
2022/08/14 00:19:08;;;;;;;17.20;15.38;;;;;;;17.94;100.00;98535.92;2211854;81;20980;-82
2022/08/14 00:22:10;;;;;;;18.37;15.35;;;;;;;17.96;100.00;98536.76;2214573;80;21410;-82
2022/08/14 00:25:09;;;;;;;17.52;15.25;;;;;;;17.96;100.00;98532.34;2221825;80;20980;-82
2022/08/14 00:28:10;;;;;;;17.17;15.48;;;;;;;17.97;100.00;98531.89;2221788;80;20952;-82
2022/08/14 00:31:10;;;;;;;17.73;15.15;;;;;;;17.99;100.00;98531.41;2221903;80;20917;-83
2022/08/14 00:34:10;;;;;;;17.67;15.58;;;;;;;17.98;100.00;98538.46;2221991;80;20953;-83
2022/08/14 00:37:11;;;;;;;18.37;16.37;;;;;;;17.98;100.00;98531.86;2222041;80;20936;-82
2022/08/14 00:40:11;;;;;;;16.95;15.18;;;;;;;17.97;100.00;98525.29;2221933;80;20963;-81
2022/08/14 00:43:12;;;;;;;16.60;14.65;;;;;;;17.98;100.00;98518.66;2221963;80;21260;-81
2022/08/14 00:46:12;;;;;;;17.20;15.43;;;;;;;17.98;100.00;98525.26;2222225;80;20929;-81
2022/08/14 00:49:13;;;;;;;17.98;15.55;;;;;;;17.97;100.00;98521.33;2222019;80;20943;-81
2022/08/14 00:52:13;;;;;;;20.00;14.87;;;;;;;17.95;100.00;98515.22;2222212;80;20971;-81
2022/08/14 00:55:13;;;;;;;18.65;16.62;;;;;;;17.93;100.00;98514.38;2221731;80;21351;-83
2022/08/14 00:58:32;;;;;;;16.25;13.98;;;;;;;17.93;100.00;98518.34;2222196;80;21332;-82
2022/08/14 01:01:34;;;;;;;18.05;15.15;;;;;;;17.91;100.00;98521.02;2222253;80;20940;-83
2022/08/14 01:04:35;;;;;;;21.30;15.95;;;;;;;17.91;100.00;98522.79;2222123;80;20917;-84
2022/08/14 01:07:33;;;;;;;19.45;15.50;;;;;;;17.89;100.00;98519.31;2222723;80;20957;-83
2022/08/14 01:10:49;;;;;;;16.73;15.03;;;;;;;17.90;100.00;98525.02;2222368;80;20924;-83
2022/08/14 01:13:50;;;;;;;16.60;15.08;;;;;;;17.90;100.00;98525.02;2222302;80;20921;-83
2022/08/14 01:16:50;;;;;;;16.42;14.93;;;;;;;17.88;100.00;98517.13;2222198;80;21406;-83
2022/08/14 01:23:09;;;;;;;23.80;15.72;;;;;;;17.86;100.00;98525.98;2222189;80;21019;-84
2022/08/14 01:26:10;;;;;;;16.37;14.83;;;;;;;17.86;100.00;98522.03;2222842;80;20925;-84
2022/08/14 01:29:10;;;;;;;18.20;16.15;;;;;;;17.86;100.00;98512.78;2222303;80;20917;-82
2022/08/14 01:32:10;;;;;;;22.77;16.60;;;;;;;17.85;100.00;98511.91;2221636;80;20948;-82
2022/08/14 01:35:11;;;;;;;18.62;16.73;;;;;;;17.84;100.00;98514.14;2222227;80;20964;-83
2022/08/14 01:38:13;;;;;;;18.65;16.55;;;;;;;17.85;100.00;98508.41;2222213;80;20924;-83
2022/08/14 01:41:12;;;;;;;22.58;17.15;;;;;;;17.86;100.00;98507.50;2221994;80;20921;-82
2022/08/14 01:44:14;;;;;;;21.55;16.52;;;;;;;17.84;100.00;98502.26;2221848;80;21276;-82
2022/08/14 01:47:13;;;;;;;21.82;17.17;;;;;;;17.82;100.00;98501.42;2221814;80;20965;-82
2022/08/14 01:50:14;;;;;;;19.42;16.42;;;;;;;17.81;100.00;98499.69;2221848;80;20929;-82
2022/08/14 01:53:14;;;;;;;22.75;19.07;;;;;;;17.82;100.00;98503.61;2222076;80;20972;-82
2022/08/14 01:56:17;;;;;;;19.80;17.80;;;;;;;17.84;100.00;98507.54;2221491;80;20948;-83
2022/08/14 01:59:14;;;;;;;23.38;18.07;;;;;;;17.84;100.00;98504.90;2221746;80;20968;-82
2022/08/14 02:02:15;;;;;;;23.75;19.30;;;;;;;17.87;100.00;98505.28;2221811;80;20964;-82
2022/08/14 02:05:16;;;;;;;21.87;18.90;;;;;;;17.89;100.00;98504.80;2222050;80;20932;-82
2022/08/14 02:08:15;;;;;;;24.23;18.67;;;;;;;17.90;100.00;98507.40;2221771;80;21362;-82
2022/08/14 02:11:16;;;;;;;20.88;17.87;;;;;;;17.92;100.00;98502.95;2221859;80;21011;-84
2022/08/14 02:14:16;;;;;;;25.17;18.65;;;;;;;17.91;100.00;98494.61;2222136;80;20999;-83
2022/08/14 02:17:22;;;;;;;24.67;19.85;;;;;;;17.92;100.00;98495.03;2222578;80;21344;-84
2022/08/14 02:20:19;;;;;;;21.33;19.05;;;;;;;17.93;100.00;98491.94;2222051;80;20933;-82
2022/08/14 02:23:19;;;;;;;24.47;20.43;;;;;;;17.90;100.00;98489.37;2216744;80;20977;-80
2022/08/14 02:26:18;;;;;;;25.85;19.25;;;;;;;17.91;100.00;98493.75;2211627;81;21352;-81
2022/08/14 02:29:20;;;;;;;28.10;20.25;;;;;;;17.88;100.00;98491.17;2211521;81;21215;-81
2022/08/14 02:32:19;;;;;;;25.75;21.05;;;;;;;17.88;100.00;98480.61;2211811;81;21012;-81
2022/08/14 02:35:19;;;;;;;27.10;21.00;;;;;;;17.88;100.00;98481.94;2211752;81;21347;-82
2022/08/14 02:38:19;;;;;;;25.60;22.27;;;;;;;17.85;100.00;98480.23;2211683;81;20897;-81
2022/08/14 02:41:20;;;;;;;26.33;22.17;;;;;;;17.86;100.00;98481.10;2211612;81;20936;-81
2022/08/14 02:44:22;;;;;;;26.57;22.15;;;;;;;17.85;100.00;98487.28;2212123;81;20968;-82
2022/08/14 02:47:21;;;;;;;28.92;22.82;;;;;;;17.83;100.00;98482.91;2212097;81;20941;-81
2022/08/14 02:50:21;;;;;;;26.45;22.73;;;;;;;17.85;100.00;98485.52;2211867;81;20941;-81
2022/08/14 02:53:21;;;;;;;31.33;23.07;;;;;;;17.84;100.00;98479.81;2211900;81;21087;-81
2022/08/14 02:56:22;;;;;;;30.15;24.30;;;;;;;17.84;100.00;98482.45;2211933;81;20929;-82
2022/08/14 02:59:22;;;;;;;32.30;26.10;;;;;;;17.83;100.00;98479.41;2211532;81;21328;-82
2022/08/14 03:02:23;;;;;;;35.73;25.95;;;;;;;17.85;100.00;98485.97;2211851;81;21375;-82
2022/08/14 03:05:23;;;;;;;36.45;26.05;;;;;;;17.82;100.00;98483.81;2211557;81;20942;-82
2022/08/14 03:08:26;;;;;;;33.13;25.75;;;;;;;17.85;100.00;98489.47;2212055;81;20905;-83
2022/08/14 03:11:25;;;;;;;31.85;25.68;;;;;;;17.86;100.00;98486.38;2211983;81;20913;-83
2022/08/14 03:14:27;;;;;;;33.45;25.72;;;;;;;17.82;100.00;98479.85;2211771;81;20940;-83
2022/08/14 03:17:28;;;;;;;31.90;26.42;;;;;;;17.81;100.00;98478.56;2212124;81;20905;-84
2022/08/14 03:20:28;;;;;;;35.38;26.45;;;;;;;17.79;100.00;98472.00;2211918;81;20972;-85
2022/08/14 03:23:34;;;;;;;32.00;26.05;;;;;;;17.81;100.00;98475.92;2216538;80;20996;-83
2022/08/14 03:26:29;;;;;;;39.23;28.10;;;;;;;17.82;100.00;98469.30;2222089;80;20940;-83
2022/08/14 03:29:29;;;;;;;36.33;26.07;;;;;;;17.82;100.00;98467.97;2221842;80;20940;-83
2022/08/14 03:32:33;;;;;;;31.15;26.27;;;;;;;17.84;100.00;98463.98;2221877;80;20936;-83
2022/08/14 03:35:33;;;;;;;39.03;28.85;;;;;;;17.83;100.00;98463.11;2222261;80;20920;-82
2022/08/14 03:38:33;;;;;;;36.70;28.98;;;;;;;17.83;100.00;98463.11;2222176;80;20948;-84
2022/08/14 03:41:34;;;;;;;41.65;29.25;;;;;;;17.85;100.00;98463.08;2221987;80;21288;-82
2022/08/14 03:44:34;;;;;;;39.55;30.43;;;;;;;17.85;100.00;98463.52;2222048;80;20932;-83
2022/08/14 03:47:39;;;;;;;33.10;27.98;;;;;;;17.86;100.00;98460.84;2221990;80;20928;-84
2022/08/14 03:50:35;;;;;;;32.25;26.80;;;;;;;17.87;100.00;98456.44;2222352;80;20909;-84
2022/08/14 03:53:36;;;;;;;33.48;24.37;;;;;;;17.91;100.00;98462.06;2221991;80;20897;-82
2022/08/14 03:56:36;;;;;;;24.45;21.82;;;;;;;17.97;100.00;98463.23;2222230;80;20897;-82
2022/08/14 03:59:36;;;;;;;24.25;21.73;;;;;;;18.01;100.00;98460.94;2222299;80;20976;-82
2022/08/14 04:02:37;;;;;;;22.75;20.60;;;;;;;18.03;100.00;98457.35;2222319;80;20948;-83
2022/08/14 04:05:37;;;;;;;21.30;19.20;;;;;;;18.09;100.00;98462.94;2222135;80;20924;-84
2022/08/14 04:08:37;;;;;;;23.25;20.90;;;;;;;18.14;100.00;98459.73;2222500;80;20940;-84
2022/08/14 04:11:38;;;;;;;21.37;19.17;;;;;;;18.20;100.00;98466.19;2223510;80;20925;-84
2022/08/14 04:14:38;;;;;;;22.73;20.48;;;;;;;18.22;100.00;98463.09;2222695;80;20971;-84
2022/08/14 04:17:40;;;;;;;22.62;20.43;;;;;;;18.24;100.00;98463.05;2222324;80;20999;-84
2022/08/14 04:20:39;;;;;;;21.90;19.62;;;;;;;18.25;100.00;98466.10;2222594;80;20984;-83
2022/08/14 04:23:40;;;;;;;23.83;21.33;;;;;;;18.28;100.00;98469.53;2217088;80;20972;-83
2022/08/14 04:26:40;;;;;;;22.85;20.65;;;;;;;18.28;100.00;98465.58;2211908;81;21028;-83
2022/08/14 04:29:40;;;;;;;22.17;19.85;;;;;;;18.30;100.00;98463.76;2212086;81;20908;-84
2022/08/14 04:32:41;;;;;;;22.00;19.42;;;;;;;18.36;100.00;98466.25;2212202;81;20940;-84
2022/08/14 04:35:41;;;;;;;22.20;19.90;;;;;;;18.42;100.00;98463.45;2212002;81;20917;-84
2022/08/14 04:45:19;;;;;;;22.93;19.92;;;;;;;18.50;100.00;98465.89;2212677;81;21021;-84
2022/08/14 04:48:20;;;;;;;19.85;17.77;;;;;;;18.55;100.00;98461.81;2212326;81;20972;-84
2022/08/14 04:51:20;;;;;;;19.98;17.90;;;;;;;18.64;100.00;98462.47;2212311;81;20926;-83
2022/08/14 04:54:20;;;;;;;20.12;18.05;;;;;;;18.69;100.00;98458.38;2212112;81;20992;-84
2022/08/14 04:57:21;;;;;;;20.95;18.95;;;;;;;18.76;100.00;98461.27;2211982;81;20937;-83
2022/08/14 05:00:21;;;;;;;20.37;18.27;;;;;;;18.81;100.00;98463.78;2211252;81;21480;-84
2022/08/14 05:03:22;;;;;;;19.48;17.52;;;;;;;18.81;100.00;98464.66;2211288;81;20985;-84
2022/08/14 05:06:22;;;;;;;20.45;18.27;;;;;;;18.81;100.00;98458.05;2211081;81;20987;-84
2022/08/14 05:09:22;;;;;;;19.52;17.50;;;;;;;18.88;100.00;98455.64;2210636;81;21402;-83
2022/08/14 05:12:23;;;;;;;19.42;17.35;;;;;;;18.93;100.00;98453.73;2210195;81;20987;-83
2022/08/14 05:15:28;;;;;;;20.02;16.60;;;;;;;18.93;100.00;98453.73;2210575;81;21009;-83
2022/08/14 05:18:23;;;;;;;19.02;17.07;;;;;;;18.89;100.00;98455.19;2210756;81;21347;-82
2022/08/14 05:21:27;;;;;;;18.32;16.52;;;;;;;18.85;100.00;98450.44;2211905;81;21008;-83
2022/08/14 05:24:24;;;;;;;16.67;14.95;;;;;;;18.80;100.00;98451.48;2217919;80;21007;-82
2022/08/14 05:27:25;;;;;;;17.17;15.58;;;;;;;18.77;100.00;98455.94;2222084;80;20920;-82
2022/08/14 05:30:25;;;;;;;18.85;17.05;;;;;;;18.76;100.00;98454.66;2222165;80;20984;-82
2022/08/14 05:33:27;;;;;;;18.52;16.57;;;;;;;18.74;100.00;98452.52;2221697;80;20993;-82
2022/08/14 05:36:26;;;;;;;18.45;16.65;;;;;;;18.72;100.00;98449.04;2221880;80;20960;-84
2022/08/14 05:39:26;;;;;;;19.27;17.57;;;;;;;18.68;100.00;98447.39;2221951;80;20956;-82
2022/08/14 05:42:27;;;;;;;18.10;16.40;;;;;;;18.70;100.00;98443.80;2221855;80;20975;-82
2022/08/14 05:45:27;;;;;;;19.87;17.25;;;;;;;18.70;100.00;98442.92;2221922;80;21375;-83
2022/08/14 05:48:28;;;;;;;17.77;16.10;;;;;;;18.71;100.00;98439.37;2221859;80;20956;-83
2022/08/14 05:51:28;;;;;;;18.27;15.85;;;;;;;18.72;100.00;98447.27;2222297;80;20905;-83
2022/08/14 05:54:28;;;;;;;18.07;16.02;;;;;;;18.71;100.00;98448.63;2222346;80;21047;-83
2022/08/14 05:57:29;;;;;;;21.00;17.35;;;;;;;18.72;100.00;98447.72;2222312;80;21225;-83
2022/08/14 06:00:29;;;;;;;17.15;15.43;;;;;;;18.77;100.00;98451.11;2222517;80;21008;-83
2022/08/14 06:03:29;;;;;;;18.17;16.30;;;;;;;18.82;100.00;98449.66;2222239;80;21384;-80
2022/08/14 06:06:30;;;;;;;17.55;16.00;;;;;;;18.86;100.00;98449.98;2221867;80;20896;-81
2022/08/14 06:09:30;;;;;;;16.85;15.25;;;;;;;18.90;100.00;98452.50;2220753;80;20967;-83
2022/08/14 06:12:31;;;;;;;16.97;15.38;;;;;;;18.94;100.00;98453.28;2221250;80;20936;-82
2022/08/14 06:15:31;;;;;;;18.80;15.38;;;;;;;19.00;100.00;98457.08;2222037;80;21020;-82
2022/08/14 06:18:32;;;;;;;16.48;14.78;;;;;;;19.05;100.00;98460.00;2222090;80;20924;-82
2022/08/14 06:21:32;;;;;;;16.23;14.58;;;;;;;19.15;100.00;98455.81;2221874;80;20928;-82
2022/08/14 06:24:32;;;;;;;15.35;13.95;;;;;;;19.32;100.00;98458.83;2215713;80;21020;-82
2022/08/14 06:27:33;;;;;;;14.60;13.20;;;;;;;19.40;100.00;98454.18;2211509;81;20961;-82
2022/08/14 06:30:33;;;;;;;14.87;13.48;;;;;;;19.47;100.00;98460.16;2211909;81;20975;-83
2022/08/14 06:33:34;;;;;;;14.90;13.50;;;;;;;19.55;100.00;98460.83;2211685;81;20969;-82
2022/08/14 06:36:37;;;;;;;14.35;12.98;;;;;;;19.61;100.00;98458.86;2211813;81;20921;-82
2022/08/14 06:39:34;;;;;;;15.13;13.62;;;;;;;19.70;100.00;98458.58;2211669;81;20968;-82
2022/08/14 06:42:35;;;;;;;13.22;11.93;;;;;;;19.80;100.00;98455.18;2211710;81;21300;-81
2022/08/14 06:45:35;;;;;;;14.85;12.95;;;;;;;19.84;100.00;98453.30;2212102;81;20917;-82
2022/08/14 06:48:35;;;;;;;15.48;13.18;;;;;;;19.93;100.00;98454.33;2213002;81;20929;-82
2022/08/14 06:51:36;;;;;;;14.80;13.45;;;;;;;20.06;100.00;98453.05;2212401;81;21360;-82
2022/08/14 06:54:36;;;;;;;14.93;13.58;;;;;;;20.25;100.00;98454.19;2212491;81;20956;-83
2022/08/14 06:57:37;;;;;;;12.85;11.55;;;;;;;20.46;100.00;98449.11;2212403;81;20925;-82
2022/08/14 07:00:37;;;;;;;17.30;14.40;;;;;;;20.69;100.00;98439.89;2212465;81;20965;-83
2022/08/14 07:06:56;;;;;;;15.55;14.05;;;;;;;20.98;100.00;98431.79;2212651;81;21023;-82
2022/08/14 07:09:57;;;;;;;14.33;12.82;;;;;;;21.07;100.00;98439.88;2212806;81;21304;-82
2022/08/14 07:12:57;;;;;;;14.87;13.32;;;;;;;21.12;100.00;98439.24;2212616;81;20929;-82
2022/08/14 07:15:57;;;;;;;15.40;13.80;;;;;;;21.09;100.00;98434.51;2212510;81;20956;-81
2022/08/14 07:18:58;;;;;;;14.78;12.78;;;;;;;21.12;100.00;98445.02;2211073;81;21015;-81
2022/08/14 07:21:58;;;;;;;14.05;12.75;;;;;;;21.31;100.00;98440.78;2211180;81;20991;-81
2022/08/14 07:24:59;;;;;;;13.35;12.25;;;;;;;21.51;100.00;98439.56;2218832;80;21074;-82
2022/08/14 07:27:59;;;;;;;13.98;12.47;;;;;;;21.62;98.89;98433.36;2222689;80;20995;-81
2022/08/14 07:31:00;;;;;;;13.93;12.53;;;;;;;21.80;98.24;98440.23;2222551;80;21024;-81
2022/08/14 07:34:00;;;;;;;13.78;12.30;;;;;;;22.07;97.44;98432.97;2222763;80;20987;-81
2022/08/14 07:37:00;;;;;;;14.60;12.07;;;;;;;22.43;96.08;98433.23;2222166;80;21356;-80
2022/08/14 07:40:01;;;;;;;13.20;11.93;;;;;;;22.56;92.15;98438.00;2221780;80;20928;-81
2022/08/14 07:43:01;;;;;;;13.58;12.37;;;;;;;22.56;91.84;98435.80;2221513;80;20964;-80
2022/08/14 07:46:01;;;;;;;12.25;11.12;;;;;;;22.72;92.80;98428.02;2220849;80;20974;-81
2022/08/14 07:49:02;;;;;;;13.80;12.55;;;;;;;23.10;90.71;98434.33;2220169;80;20940;-81
2022/08/14 07:52:02;;;;;;;12.50;11.20;;;;;;;23.42;87.12;98436.88;2220178;80;20990;-80
2022/08/14 07:55:03;;;;;;;12.58;10.98;;;;;;;23.54;85.69;98435.45;2220349;80;21015;-80
2022/08/14 07:58:03;;;;;;;12.13;10.93;;;;;;;23.73;87.37;98432.34;2220088;80;21366;-80
2022/08/14 08:01:04;;;;;;;14.43;12.10;;;;;;;24.02;87.10;98430.45;2220162;80;21026;-80
2022/08/14 08:04:04;;;;;;;12.55;11.25;;;;;;;24.43;84.40;98432.45;2220547;80;20950;-80
2022/08/14 08:07:04;;;;;;;12.85;11.57;;;;;;;24.70;84.49;98431.98;2220550;80;21359;-80
2022/08/14 08:10:29;;;;;;;12.10;11.00;;;;;;;24.74;82.31;98425.54;2220714;80;20976;-82
2022/08/14 08:13:06;;;;;;;14.07;12.68;;;;;;;24.73;81.77;98422.01;2221678;80;20992;-81
2022/08/14 08:16:06;;;;;;;14.85;13.25;;;;;;;24.65;80.82;98426.88;2221862;80;21351;-81
2022/08/14 08:19:07;;;;;;;13.48;12.13;;;;;;;24.66;81.16;98417.93;2221846;80;20972;-81
2022/08/14 08:22:06;;;;;;;12.20;11.03;;;;;;;24.69;80.82;98427.11;2221921;80;20959;-81
2022/08/14 08:25:07;;;;;;;12.37;11.22;;;;;;;24.52;79.82;98416.92;2214726;80;21005;-81
2022/08/14 08:28:07;;;;;;;13.68;12.45;;;;;;;24.37;80.23;98421.23;2211659;81;20932;-81
2022/08/14 08:31:08;;;;;;;13.32;12.03;;;;;;;24.15;79.63;98424.91;2211322;81;20932;-80
2022/08/14 08:34:08;;;;;;;12.90;11.70;;;;;;;23.90;79.66;98425.72;2211612;81;20945;-80
2022/08/14 08:37:08;;;;;;;13.48;12.07;;;;;;;23.83;80.47;98422.95;2211614;81;20901;-83
2022/08/14 08:40:09;;;;;;;13.20;11.88;;;;;;;23.88;80.53;98421.41;2211275;81;21300;-81
2022/08/14 08:43:09;;;;;;;13.30;12.05;;;;;;;24.08;79.73;98415.48;2211414;81;20987;-81
2022/08/14 08:46:10;;;;;;;13.88;12.30;;;;;;;24.33;78.57;98416.99;2211571;81;21004;-81
2022/08/14 08:49:10;;;;;;;12.50;11.15;;;;;;;24.69;78.65;98415.58;2210302;81;21375;-81
2022/08/14 08:52:10;;;;;;;12.53;11.43;;;;;;;24.98;77.62;98409.59;2210399;81;21423;-82
2022/08/14 08:55:11;;;;;;;12.55;11.25;;;;;;;25.01;76.39;98406.77;2210227;81;21024;-80
2022/08/14 08:58:11;;;;;;;12.70;11.60;;;;;;;24.86;75.94;98404.02;2210797;81;20976;-81
2022/08/14 09:01:12;;;;;;;14.28;12.07;;;;;;;24.76;75.45;98411.17;2211269;81;21351;-82
2022/08/14 09:04:13;;;;;;;13.45;12.18;;;;;;;24.66;74.58;98413.06;2211367;81;20959;-81
2022/08/14 09:07:13;;;;;;;13.40;12.10;;;;;;;24.50;75.19;98410.33;2211625;81;20897;-81
2022/08/14 09:10:13;;;;;;;12.85;11.63;;;;;;;24.40;75.08;98406.41;2211665;81;20907;-81
2022/08/14 09:13:14;;;;;;;12.73;11.53;;;;;;;24.26;75.79;98405.70;2211384;81;20936;-81
2022/08/14 09:16:14;;;;;;;13.98;12.58;;;;;;;24.22;76.44;98415.27;2211459;81;20925;-81
2022/08/14 09:19:14;;;;;;;14.00;12.47;;;;;;;24.30;75.91;98412.68;2211321;81;20972;-81
2022/08/14 09:22:14;;;;;;;12.78;11.45;;;;;;;24.80;76.12;98415.87;2211699;81;20993;-80
2022/08/14 09:25:15;;;;;;;13.22;11.95;;;;;;;24.99;73.33;98407.80;2211446;80;21395;-81
2022/08/14 09:28:15;;;;;;;12.98;11.68;;;;;;;24.83;73.14;98406.84;2211706;81;20968;-82
2022/08/14 09:31:16;;;;;;;12.90;11.80;;;;;;;24.57;72.73;98410.88;2211795;81;20960;-81
2022/08/14 09:34:16;;;;;;;12.23;11.20;;;;;;;24.37;73.58;98407.42;2211617;81;21031;-82
2022/08/14 09:37:16;;;;;;;13.03;11.83;;;;;;;24.47;72.78;98405.16;2211496;81;20937;-81
2022/08/14 09:40:18;;;;;;;13.65;12.35;;;;;;;24.67;73.63;98400.12;2211734;81;21020;-81
2022/08/14 09:43:17;;;;;;;13.08;11.93;;;;;;;24.95;73.38;98404.39;2211876;81;20963;-82
2022/08/14 09:46:18;;;;;;;12.65;11.45;;;;;;;25.21;73.18;98403.05;2211364;81;21324;-82
2022/08/14 09:49:18;;;;;;;15.60;11.83;;;;;;;25.36;69.55;98395.53;2211496;81;21344;-81
2022/08/14 09:52:18;;;;;;;14.15;12.63;;;;;;;25.29;70.82;98404.83;2212336;81;20909;-81
2022/08/14 09:55:19;;;;;;;13.08;11.88;;;;;;;25.05;71.37;98402.13;2211992;81;21015;-82
2022/08/14 09:58:19;;;;;;;12.65;11.60;;;;;;;24.92;71.41;98401.88;2211743;81;21006;-81
2022/08/14 10:01:20;;;;;;;12.98;11.78;;;;;;;24.91;70.90;98400.63;2211777;81;21023;-81
2022/08/14 10:04:20;;;;;;;14.50;11.73;;;;;;;24.90;71.67;98408.25;2211832;81;20932;-81
2022/08/14 10:07:20;;;;;;;13.30;11.93;;;;;;;24.67;70.64;98400.98;2212047;81;20973;-80
2022/08/14 10:10:21;;;;;;;13.35;12.00;;;;;;;24.53;71.19;98400.83;2211757;81;21332;-80
2022/08/14 10:13:21;;;;;;;13.65;12.37;;;;;;;24.37;71.80;98395.89;2211892;81;20949;-80
2022/08/14 10:16:24;;;;;;;14.13;12.68;;;;;;;24.14;71.90;98403.19;2212012;81;20936;-81
2022/08/14 10:19:22;;;;;;;12.93;11.75;;;;;;;23.89;72.87;98405.81;2211737;81;21340;-81
2022/08/14 10:22:27;;;;;;;14.10;12.85;;;;;;;23.77;73.50;98404.60;2211639;81;20905;-80
2022/08/14 10:25:25;;;;;;;13.38;11.97;;;;;;;23.95;73.78;98401.04;2211391;80;21008;-81
2022/08/14 10:28:23;;;;;;;14.65;13.10;;;;;;;24.34;72.53;98398.25;2211442;81;21004;-81
2022/08/14 10:31:24;;;;;;;13.35;12.03;;;;;;;24.51;72.07;98395.19;2211805;81;21307;-81
2022/08/14 10:34:24;;;;;;;14.05;12.70;;;;;;;24.55;72.34;98392.28;2211635;81;20948;-81
2022/08/14 10:37:24;;;;;;;16.97;13.00;;;;;;;24.55;72.43;98396.28;2211970;81;21020;-81
2022/08/14 10:40:26;;;;;;;15.93;12.90;;;;;;;24.39;71.76;98392.67;2211747;81;21328;-82
2022/08/14 10:43:25;;;;;;;15.98;14.47;;;;;;;24.22;71.87;98393.94;2211713;81;20933;-81
2022/08/14 10:46:27;;;;;;;13.98;12.65;;;;;;;24.20;72.51;98399.81;2212077;81;20968;-81
2022/08/14 10:49:26;;;;;;;14.25;12.98;;;;;;;24.24;72.51;98402.25;2211782;81;20905;-80
2022/08/14 10:52:28;;;;;;;13.40;12.23;;;;;;;24.34;72.07;98401.38;2211807;81;20921;-81
2022/08/14 10:55:27;;;;;;;13.78;12.58;;;;;;;24.44;72.38;98411.50;2211922;81;21000;-81
2022/08/14 10:58:28;;;;;;;15.20;12.88;;;;;;;24.49;72.23;98407.73;2212003;81;20933;-81
2022/08/14 11:01:28;;;;;;;17.82;13.60;;;;;;;24.46;72.86;98407.42;2211785;81;20968;-80
2022/08/14 11:04:28;;;;;;;16.37;13.45;;;;;;;24.36;72.74;98402.17;2211827;81;20929;-81
2022/08/14 11:07:29;;;;;;;13.65;12.05;;;;;;;24.31;73.14;98405.07;2211995;81;20936;-81
2022/08/14 11:10:29;;;;;;;14.13;12.55;;;;;;;24.37;73.17;98407.89;2211917;81;20909;-81
2022/08/14 11:13:29;;;;;;;14.65;13.13;;;;;;;24.45;72.92;98411.03;2211637;81;20956;-81
2022/08/14 11:16:30;;;;;;;18.12;13.30;;;;;;;24.54;73.07;98405.23;2211967;81;20944;-81
2022/08/14 11:19:32;;;;;;;15.55;12.82;;;;;;;24.60;72.24;98408.91;2211922;81;21003;-81
2022/08/14 11:22:31;;;;;;;15.10;13.60;;;;;;;24.60;72.08;98408.91;2211972;81;21011;-81
2022/08/14 11:25:31;;;;;;;15.43;13.90;;;;;;;24.68;72.53;98412.52;2217089;80;20968;-81
2022/08/14 11:28:31;;;;;;;15.38;13.90;;;;;;;24.83;72.35;98410.84;2222244;80;20932;-80
2022/08/14 11:31:32;;;;;;;16.23;14.58;;;;;;;24.96;71.32;98404.78;2222140;80;20948;-81
2022/08/14 11:34:32;;;;;;;16.65;14.73;;;;;;;25.03;71.40;98409.35;2221957;80;20980;-82
2022/08/14 11:37:33;;;;;;;17.70;15.23;;;;;;;25.16;71.42;98406.45;2222094;80;20925;-81
2022/08/14 11:40:33;;;;;;;17.37;15.72;;;;;;;25.31;69.71;98401.60;2222085;80;20976;-81
2022/08/14 11:43:33;;;;;;;20.37;18.37;;;;;;;25.51;69.41;98399.64;2221909;80;21300;-81
2022/08/14 11:46:34;;;;;;;18.67;16.62;;;;;;;25.63;69.73;98402.96;2221866;80;20927;-81
2022/08/14 11:49:34;;;;;;;18.32;16.40;;;;;;;25.57;68.46;98409.51;2221919;80;20936;-80
2022/08/14 11:52:38;;;;;;;18.65;16.95;;;;;;;25.67;68.33;98412.09;2221999;80;20917;-81
2022/08/14 11:55:35;;;;;;;19.80;17.80;;;;;;;25.85;66.56;98411.52;2221761;80;21304;-81
2022/08/14 11:58:35;;;;;;;19.70;17.90;;;;;;;26.00;67.05;98407.97;2221867;80;20995;-81
2022/08/14 12:01:36;;;;;;;20.17;18.27;;;;;;;26.30;66.95;98413.38;2221447;80;20978;-81
2022/08/14 12:04:36;;;;;;;21.60;19.10;;;;;;;26.49;65.09;98413.19;2221773;80;21291;-82
2022/08/14 12:07:37;;;;;;;22.10;19.92;;;;;;;26.51;64.41;98409.95;2221817;80;20944;-83
2022/08/14 12:10:37;;;;;;;21.07;19.07;;;;;;;26.54;64.49;98413.77;2221807;80;20922;-81
2022/08/14 12:13:38;;;;;;;21.48;19.62;;;;;;;26.81;65.07;98409.05;2221767;80;20932;-81
2022/08/14 12:16:38;;;;;;;23.57;20.37;;;;;;;27.21;64.08;98415.08;2221626;80;20928;-81
2022/08/14 12:19:38;;;;;;;21.27;19.00;;;;;;;27.42;61.25;98417.36;2221744;80;20972;-81
2022/08/14 12:22:39;;;;;;;20.92;18.92;;;;;;;27.39;61.01;98421.57;2221761;80;20927;-82
2022/08/14 12:25:39;;;;;;;22.15;20.02;;;;;;;27.25;61.02;98419.28;2216769;80;21348;-79
2022/08/14 12:28:39;;;;;;;22.48;20.20;;;;;;;27.16;61.64;98415.84;2211368;81;20933;-81
2022/08/14 12:31:46;;;;;;;22.73;20.25;;;;;;;27.18;61.63;98416.61;2211592;81;21007;-80
2022/08/14 12:34:47;;;;;;;21.27;19.20;;;;;;;27.25;62.47;98419.77;2211425;81;20968;-81
2022/08/14 12:37:47;;;;;;;21.73;19.48;;;;;;;27.35;61.70;98421.38;2211418;81;20897;-81
2022/08/14 12:40:47;;;;;;;22.13;19.82;;;;;;;27.25;61.77;98415.74;2211613;81;20929;-81
2022/08/14 12:43:47;;;;;;;21.75;19.07;;;;;;;26.97;61.02;98415.22;2211716;81;20941;-81
2022/08/14 12:46:48;;;;;;;21.52;19.25;;;;;;;26.73;60.90;98415.34;2211359;81;21355;-82
2022/08/14 12:49:51;;;;;;;20.12;18.10;;;;;;;26.52;61.38;98402.30;2210212;81;21000;-81
2022/08/14 12:52:49;;;;;;;20.85;18.95;;;;;;;26.49;61.73;98407.84;2210475;81;20971;-82
2022/08/14 12:55:51;;;;;;;21.12;18.87;;;;;;;26.70;62.66;98402.14;2210846;81;20957;-82
2022/08/14 12:58:50;;;;;;;21.23;19.25;;;;;;;26.82;62.38;98401.40;2210537;81;20964;-82
2022/08/14 13:01:50;;;;;;;21.12;19.27;;;;;;;26.92;61.78;98392.74;2210441;81;21199;-82
2022/08/14 13:04:50;;;;;;;36.20;31.15;;;;;;;26.96;61.39;98394.27;2210776;81;20987;-80
2022/08/14 13:07:52;;;;;;;22.32;20.20;;;;;;;27.08;60.33;98387.33;2211161;81;21048;-82
2022/08/14 13:10:52;;;;;;;19.92;18.12;;;;;;;27.45;60.08;98383.66;2211974;81;21012;-81
2022/08/14 13:13:52;;;;;;;21.73;19.70;;;;;;;27.80;58.51;98377.42;2211958;81;20936;-82
2022/08/14 13:16:53;;;;;;;19.50;17.48;;;;;;;27.94;58.78;98372.49;2211806;81;20916;-81
2022/08/14 13:19:53;;;;;;;20.00;18.07;;;;;;;28.65;57.61;98353.39;2211708;81;20984;-81
2022/08/14 13:22:54;;;;;;;18.37;16.60;;;;;;;28.65;57.61;98353.39;2211676;81;20937;-81
2022/08/14 13:25:54;;;;;;;17.80;16.07;;;;;;;29.02;57.21;98338.27;2216500;80;20937;-82
2022/08/14 13:28:54;;;;;;;17.75;16.25;;;;;;;29.29;55.30;98331.39;2222241;80;21296;-81
2022/08/14 13:31:56;;;;;;;17.62;15.93;;;;;;;29.10;54.83;98327.34;2221998;80;21300;-82
2022/08/14 13:34:57;;;;;;;17.85;16.25;;;;;;;28.69;54.44;98321.33;2221740;80;21292;-81
2022/08/14 13:37:56;;;;;;;17.48;16.02;;;;;;;28.59;55.08;98320.22;2221820;80;20917;-81
2022/08/14 13:40:56;;;;;;;17.92;16.30;;;;;;;28.51;55.53;98312.70;2221790;80;21020;-82
2022/08/14 13:43:56;;;;;;;17.17;15.68;;;;;;;28.58;55.38;98307.28;2221953;80;20948;-82
2022/08/14 13:46:57;;;;;;;16.35;14.95;;;;;;;28.66;54.09;98300.06;2221714;80;21284;-82
2022/08/14 13:50:01;;;;;;;16.65;15.20;;;;;;;28.66;54.84;98300.92;2221631;80;20944;-82
2022/08/14 13:53:01;;;;;;;17.80;15.48;;;;;;;28.59;53.63;98300.08;2222314;80;21343;-82
2022/08/14 13:56:01;;;;;;;14.95;13.48;;;;;;;28.44;53.62;98294.81;2221695;80;20900;-82